LFMN Airport Information

Runway Information
Runway 04L Length 8995 ft width 148 ft
Elevation 10 ft Threshold 0 ft Heading 45
Runway 22R Length 8995 ft Width 148 ft
Elevation 10 ft Threshold 575 ft Heading 225
Runway 04R Length 9712 ft width 148 ft
Elevation 10 ft Threshold 0 ft Heading 45
Runway 22L Length 9712 ft Width 148 ft
Elevation 12 ft Threshold 0 ft Heading 225
Airport Frequencies
Type A/D Name NICE APP Frequency 124.175 MHZ
Type ATIS Name NICE ATIS Frequency 129.6 MHZ
Type GND Name NICE GND Frequency 121.775 MHZ
Type TWR Name NICE TWR Frequency 118.7 MHZ
Airport Navaids
Type VOR-DME Name Nice Cote D Azur Frequency 109650 KHZ
Type VOR-DME Name Cagnes Sur Mer Frequency 109200 KHZ
Type NDB Name Nice Frequency 399 KHZ
Type VOR-DME Name Nice Frequency 112400 KHZ
Airport Weather Information & NOTAM
ADDS - METARS form results

(1515 UTC 13 July 2020)
Data provider http://aviationweather.gov/metar/data/
 
METAR text: LFMN 131500Z 03006KT 340V090 9999 FEW030 FEW050TCU SCT066 BKN110 26/18 Q1017 NOSIG
Conditions at: LFMN (NICE/COTE D'AZUR, FR) observed 1500 UTC 13 July 2020
Temperature: 26.0°C (79°F)
Dewpoint: 18.0°C (64°F) [RH = 61%]
Pressure (altimeter): 30.03 inches Hg (1017.0 mb)
Winds: from the NNE (30 degrees) at 7 MPH (6 knots; 3.1 m/s)
Visibility: 6 or more miles (10+ km)
Ceiling: 11000 feet AGL
Clouds: few clouds at 3000 feet AGL
few clouds at 5000 feet AGL
scattered clouds at 6600 feet AGL
broken clouds at 11000 feet AGL
Weather: no significant weather observed at this time

METAR text: LFMN 131430Z 36005KT 9999 FEW030 FEW050TCU SCT066 BKN110 25/17 Q1017 NOSIG
Conditions at: LFMN (NICE/COTE D'AZUR, FR) observed 1430 UTC 13 July 2020
Temperature: 25.0°C (77°F)
Dewpoint: 17.0°C (63°F) [RH = 61%]
Pressure (altimeter): 30.03 inches Hg (1017.0 mb)
Winds: from the N (360 degrees) at 6 MPH (5 knots; 2.6 m/s)
Visibility: 6 or more miles (10+ km)
Ceiling: 11000 feet AGL
Clouds: few clouds at 3000 feet AGL
few clouds at 5000 feet AGL
scattered clouds at 6600 feet AGL
broken clouds at 11000 feet AGL
Weather: no significant weather observed at this time

Forecast for: LFMN (NICE/COTE D'AZUR, FR)
Text: TAF LFMN 131400Z 1315/1421 VRB05KT CAVOK
Forecast period: 1500 UTC 13 July 2020 to 2100 UTC 14 July 2020
Forecast type: FROM: standard forecast or significant change
Winds: variable direction winds at 6 MPH (5 knots; 2.6 m/s)
Visibility: 6 or more miles 10+ km)
Ceiling: unknown
Clouds: missing
Weather: NSW  (no significant weather)
Text: PROB30
Forecast period: 1500 to 1800 UTC 13 July 2020
Forecast type: TEMPORARY: The following changes expected for less than half the time period
Visibility: missing
Ceiling: at least 12,000 feet AGL
Clouds: scattered clouds at 5000 feet AGL
Weather: -TSRA  (light rain associated with thunderstorm(s))